sensor_id;sensor_type;location;lat;lon;timestamp;temperature;humidity
463;DHT22;218;51.902;9.542;2023-07-22T06:49:15;18.70;1.00
463;DHT22;218;51.902;9.542;2023-07-22T08:00:53;20.10;1.00
463;DHT22;218;51.902;9.542;2023-07-22T08:20:34;20.30;1.00
463;DHT22;218;51.902;9.542;2023-07-22T08:32:52;20.50;1.00
463;DHT22;218;51.902;9.542;2023-07-22T08:40:15;20.60;1.00
463;DHT22;218;51.902;9.542;2023-07-22T08:47:39;20.70;1.00
463;DHT22;218;51.902;9.542;2023-07-22T08:52:37;20.70;1.00
463;DHT22;218;51.902;9.542;2023-07-22T09:04:58;21.20;1.00
463;DHT22;218;51.902;9.542;2023-07-22T09:07:27;21.20;1.00
463;DHT22;218;51.902;9.542;2023-07-22T09:09:56;21.30;1.00
463;DHT22;218;51.902;9.542;2023-07-22T09:12:24;21.50;1.00
463;DHT22;218;51.902;9.542;2023-07-22T09:19:51;21.90;1.00
463;DHT22;218;51.902;9.542;2023-07-22T09:24:53;22.30;1.00
463;DHT22;218;51.902;9.542;2023-07-22T09:27:32;22.40;1.00
463;DHT22;218;51.902;9.542;2023-07-22T09:29:59;22.60;1.00
463;DHT22;218;51.902;9.542;2023-07-22T09:32:35;22.70;1.00
463;DHT22;218;51.902;9.542;2023-07-22T09:35:03;22.80;1.00
463;DHT22;218;51.902;9.542;2023-07-22T09:37:36;23.00;1.00
463;DHT22;218;51.902;9.542;2023-07-22T09:40:13;23.10;1.00
463;DHT22;218;51.902;9.542;2023-07-22T09:42:44;23.30;1.00
463;DHT22;218;51.902;9.542;2023-07-22T09:45:11;23.30;1.00
463;DHT22;218;51.902;9.542;2023-07-22T09:47:41;23.40;1.00
463;DHT22;218;51.902;9.542;2023-07-22T09:50:11;23.50;1.00
463;DHT22;218;51.902;9.542;2023-07-22T09:52:45;23.60;1.00
463;DHT22;218;51.902;9.542;2023-07-22T09:55:18;23.70;1.00
463;DHT22;218;51.902;9.542;2023-07-22T09:57:47;23.70;1.00
463;DHT22;218;51.902;9.542;2023-07-22T10:00:16;23.80;1.00
463;DHT22;218;51.902;9.542;2023-07-22T10:02:46;23.90;1.00
463;DHT22;218;51.902;9.542;2023-07-22T10:05:16;24.00;1.00
463;DHT22;218;51.902;9.542;2023-07-22T10:07:45;24.00;1.00
463;DHT22;218;51.902;9.542;2023-07-22T10:10:14;24.10;1.00
463;DHT22;218;51.902;9.542;2023-07-22T10:12:42;24.20;1.00
463;DHT22;218;51.902;9.542;2023-07-22T10:15:10;24.20;1.00
463;DHT22;218;51.902;9.542;2023-07-22T10:17:38;24.30;1.00
463;DHT22;218;51.902;9.542;2023-07-22T10:20:06;24.30;1.00
463;DHT22;218;51.902;9.542;2023-07-22T10:22:36;24.40;1.00
463;DHT22;218;51.902;9.542;2023-07-22T10:25:05;24.50;1.00
463;DHT22;218;51.902;9.542;2023-07-22T10:27:34;24.60;1.00
463;DHT22;218;51.902;9.542;2023-07-22T10:30:02;24.70;1.00
463;DHT22;218;51.902;9.542;2023-07-22T10:32:34;24.80;1.00
463;DHT22;218;51.902;9.542;2023-07-22T10:35:02;24.80;1.00
463;DHT22;218;51.902;9.542;2023-07-22T10:37:32;24.90;1.00
463;DHT22;218;51.902;9.542;2023-07-22T10:40:00;25.00;1.00
463;DHT22;218;51.902;9.542;2023-07-22T10:42:31;25.10;1.00
463;DHT22;218;51.902;9.542;2023-07-22T10:45:01;25.10;1.00
463;DHT22;218;51.902;9.542;2023-07-22T10:47:33;25.20;1.00
463;DHT22;218;51.902;9.542;2023-07-22T10:50:06;25.20;1.00
463;DHT22;218;51.902;9.542;2023-07-22T10:52:40;25.30;1.00
463;DHT22;218;51.902;9.542;2023-07-22T10:55:15;25.30;1.00
463;DHT22;218;51.902;9.542;2023-07-22T10:57:48;25.20;1.00
463;DHT22;218;51.902;9.542;2023-07-22T11:00:19;25.30;1.00
463;DHT22;218;51.902;9.542;2023-07-22T11:02:48;25.20;1.00
463;DHT22;218;51.902;9.542;2023-07-22T11:05:48;25.30;1.00
463;DHT22;218;51.902;9.542;2023-07-22T11:08:15;25.30;1.00
463;DHT22;218;51.902;9.542;2023-07-22T11:10:52;25.30;1.00
463;DHT22;218;51.902;9.542;2023-07-22T11:13:27;25.40;1.00
463;DHT22;218;51.902;9.542;2023-07-22T11:15:59;25.40;1.00
463;DHT22;218;51.902;9.542;2023-07-22T11:18:36;25.50;1.00
463;DHT22;218;51.902;9.542;2023-07-22T11:21:07;25.50;1.00
463;DHT22;218;51.902;9.542;2023-07-22T11:23:35;25.60;1.00
463;DHT22;218;51.902;9.542;2023-07-22T11:26:02;25.70;1.00
463;DHT22;218;51.902;9.542;2023-07-22T11:28:30;25.70;1.00
463;DHT22;218;51.902;9.542;2023-07-22T11:30:58;25.80;1.00
463;DHT22;218;51.902;9.542;2023-07-22T11:33:34;25.80;1.00
463;DHT22;218;51.902;9.542;2023-07-22T11:36:04;25.90;1.00
463;DHT22;218;51.902;9.542;2023-07-22T11:38:31;26.00;1.00
463;DHT22;218;51.902;9.542;2023-07-22T11:40:58;26.00;1.00
463;DHT22;218;51.902;9.542;2023-07-22T11:43:26;26.10;1.00
463;DHT22;218;51.902;9.542;2023-07-22T11:45:53;26.10;1.00
463;DHT22;218;51.902;9.542;2023-07-22T11:48:22;26.10;1.00
463;DHT22;218;51.902;9.542;2023-07-22T11:50:49;26.10;1.00
463;DHT22;218;51.902;9.542;2023-07-22T11:53:15;26.20;1.00
463;DHT22;218;51.902;9.542;2023-07-22T11:55:43;26.10;1.00
463;DHT22;218;51.902;9.542;2023-07-22T11:58:10;26.20;1.00
463;DHT22;218;51.902;9.542;2023-07-22T12:00:37;26.20;1.00
463;DHT22;218;51.902;9.542;2023-07-22T12:03:07;26.20;1.00
463;DHT22;218;51.902;9.542;2023-07-22T12:05:36;26.20;1.00
463;DHT22;218;51.902;9.542;2023-07-22T12:08:04;26.20;1.00
463;DHT22;218;51.902;9.542;2023-07-22T12:10:32;26.20;1.00
463;DHT22;218;51.902;9.542;2023-07-22T12:13:01;26.20;1.00
463;DHT22;218;51.902;9.542;2023-07-22T12:15:28;26.20;1.00
463;DHT22;218;51.902;9.542;2023-07-22T12:17:56;26.20;1.00
463;DHT22;218;51.902;9.542;2023-07-22T12:20:24;26.30;1.00
463;DHT22;218;51.902;9.542;2023-07-22T12:22:53;26.30;1.00
463;DHT22;218;51.902;9.542;2023-07-22T12:25:20;26.30;1.00
463;DHT22;218;51.902;9.542;2023-07-22T12:27:47;26.30;1.00
463;DHT22;218;51.902;9.542;2023-07-22T12:30:15;26.40;1.00
463;DHT22;218;51.902;9.542;2023-07-22T12:32:43;26.40;1.00
463;DHT22;218;51.902;9.542;2023-07-22T12:35:10;26.40;1.00
463;DHT22;218;51.902;9.542;2023-07-22T12:37:39;26.40;1.00
463;DHT22;218;51.902;9.542;2023-07-22T12:40:09;26.40;1.00
463;DHT22;218;51.902;9.542;2023-07-22T12:42:36;26.40;1.00
463;DHT22;218;51.902;9.542;2023-07-22T12:45:04;26.40;1.00
463;DHT22;218;51.902;9.542;2023-07-22T12:47:31;26.40;1.00
463;DHT22;218;51.902;9.542;2023-07-22T12:49:58;26.40;1.00
463;DHT22;218;51.902;9.542;2023-07-22T12:52:25;26.40;1.00
463;DHT22;218;51.902;9.542;2023-07-22T12:54:52;26.30;1.00
463;DHT22;218;51.902;9.542;2023-07-22T12:57:21;26.30;1.00
463;DHT22;218;51.902;9.542;2023-07-22T12:59:48;26.30;1.00
463;DHT22;218;51.902;9.542;2023-07-22T13:02:16;26.30;1.00
463;DHT22;218;51.902;9.542;2023-07-22T13:04:43;26.30;1.00
463;DHT22;218;51.902;9.542;2023-07-22T13:07:10;26.20;1.00
463;DHT22;218;51.902;9.542;2023-07-22T13:09:37;26.20;1.00
463;DHT22;218;51.902;9.542;2023-07-22T13:12:04;26.20;1.00
463;DHT22;218;51.902;9.542;2023-07-22T13:14:33;26.30;1.00
463;DHT22;218;51.902;9.542;2023-07-22T13:17:00;26.30;1.00
463;DHT22;218;51.902;9.542;2023-07-22T13:19:27;26.30;1.00
463;DHT22;218;51.902;9.542;2023-07-22T13:21:54;26.30;1.00
463;DHT22;218;51.902;9.542;2023-07-22T13:24:21;26.30;1.00
463;DHT22;218;51.902;9.542;2023-07-22T13:26:48;26.40;1.00
463;DHT22;218;51.902;9.542;2023-07-22T13:29:17;26.40;1.00
463;DHT22;218;51.902;9.542;2023-07-22T13:31:45;26.50;1.00
463;DHT22;218;51.902;9.542;2023-07-22T13:34:12;26.50;1.00
463;DHT22;218;51.902;9.542;2023-07-22T13:36:39;26.60;1.00
463;DHT22;218;51.902;9.542;2023-07-22T13:39:08;26.60;1.00
463;DHT22;218;51.902;9.542;2023-07-22T13:41:35;26.70;1.00
463;DHT22;218;51.902;9.542;2023-07-22T13:44:02;26.70;1.00
463;DHT22;218;51.902;9.542;2023-07-22T13:46:29;26.70;1.00
463;DHT22;218;51.902;9.542;2023-07-22T13:48:57;26.80;1.00
463;DHT22;218;51.902;9.542;2023-07-22T13:51:24;26.80;1.00
463;DHT22;218;51.902;9.542;2023-07-22T13:53:51;26.90;1.00
463;DHT22;218;51.902;9.542;2023-07-22T13:56:18;27.00;1.00
463;DHT22;218;51.902;9.542;2023-07-22T13:58:45;27.00;1.00
463;DHT22;218;51.902;9.542;2023-07-22T14:01:12;27.10;1.00
463;DHT22;218;51.902;9.542;2023-07-22T14:03:39;27.20;1.00
463;DHT22;218;51.902;9.542;2023-07-22T14:06:07;27.20;1.00
463;DHT22;218;51.902;9.542;2023-07-22T14:08:34;27.20;1.00
463;DHT22;218;51.902;9.542;2023-07-22T14:11:01;27.30;1.00
463;DHT22;218;51.902;9.542;2023-07-22T14:13:28;27.30;1.00
463;DHT22;218;51.902;9.542;2023-07-22T14:15:55;27.30;1.00
463;DHT22;218;51.902;9.542;2023-07-22T14:18:22;27.40;1.00
463;DHT22;218;51.902;9.542;2023-07-22T14:20:50;27.40;1.00
463;DHT22;218;51.902;9.542;2023-07-22T14:23:18;27.40;1.00
463;DHT22;218;51.902;9.542;2023-07-22T14:25:45;27.40;1.00
463;DHT22;218;51.902;9.542;2023-07-22T14:28:12;27.50;1.00
463;DHT22;218;51.902;9.542;2023-07-22T14:30:39;27.50;1.00
463;DHT22;218;51.902;9.542;2023-07-22T14:33:06;27.50;1.00
463;DHT22;218;51.902;9.542;2023-07-22T14:35:33;27.50;1.00
463;DHT22;218;51.902;9.542;2023-07-22T14:38:00;27.60;1.00
463;DHT22;218;51.902;9.542;2023-07-22T14:40:29;27.60;1.00
463;DHT22;218;51.902;9.542;2023-07-22T14:42:56;27.70;1.00
463;DHT22;218;51.902;9.542;2023-07-22T14:45:23;27.70;1.00
463;DHT22;218;51.902;9.542;2023-07-22T14:47:50;27.70;1.00
463;DHT22;218;51.902;9.542;2023-07-22T14:50:17;27.80;1.00
463;DHT22;218;51.902;9.542;2023-07-22T14:52:44;27.80;1.00
463;DHT22;218;51.902;9.542;2023-07-22T14:55:11;27.80;1.00
463;DHT22;218;51.902;9.542;2023-07-22T14:57:40;27.80;1.00
463;DHT22;218;51.902;9.542;2023-07-22T15:00:08;27.80;1.00
463;DHT22;218;51.902;9.542;2023-07-22T15:02:36;27.80;1.00
463;DHT22;218;51.902;9.542;2023-07-22T15:05:03;27.80;1.00
463;DHT22;218;51.902;9.542;2023-07-22T15:07:30;27.80;1.00
463;DHT22;218;51.902;9.542;2023-07-22T15:09:57;27.80;1.00
463;DHT22;218;51.902;9.542;2023-07-22T15:12:25;27.80;1.00
463;DHT22;218;51.902;9.542;2023-07-22T15:14:53;27.90;1.00
463;DHT22;218;51.902;9.542;2023-07-22T15:17:20;27.90;1.00
463;DHT22;218;51.902;9.542;2023-07-22T15:19:47;27.90;1.00
463;DHT22;218;51.902;9.542;2023-07-22T15:22:14;27.90;1.00
463;DHT22;218;51.902;9.542;2023-07-22T15:24:41;27.90;1.00
463;DHT22;218;51.902;9.542;2023-07-22T15:27:07;27.90;1.00
463;DHT22;218;51.902;9.542;2023-07-22T15:29:34;28.00;1.00
463;DHT22;218;51.902;9.542;2023-07-22T15:32:03;28.00;1.00
463;DHT22;218;51.902;9.542;2023-07-22T15:34:30;28.00;1.00
463;DHT22;218;51.902;9.542;2023-07-22T15:36:58;28.10;1.00
463;DHT22;218;51.902;9.542;2023-07-22T15:39:25;28.10;1.00
463;DHT22;218;51.902;9.542;2023-07-22T15:41:53;28.10;1.00
463;DHT22;218;51.902;9.542;2023-07-22T15:44:19;28.10;1.00
463;DHT22;218;51.902;9.542;2023-07-22T15:46:47;28.20;1.00
463;DHT22;218;51.902;9.542;2023-07-22T15:49:16;28.20;1.00
463;DHT22;218;51.902;9.542;2023-07-22T15:51:43;28.20;1.00
463;DHT22;218;51.902;9.542;2023-07-22T15:54:09;28.20;1.00
463;DHT22;218;51.902;9.542;2023-07-22T15:56:39;28.20;1.00
463;DHT22;218;51.902;9.542;2023-07-22T15:59:06;28.20;1.00
463;DHT22;218;51.902;9.542;2023-07-22T16:01:33;28.30;1.00
463;DHT22;218;51.902;9.542;2023-07-22T16:04:00;28.30;1.00
463;DHT22;218;51.902;9.542;2023-07-22T16:06:29;28.30;1.00
463;DHT22;218;51.902;9.542;2023-07-22T16:08:56;28.30;1.00
463;DHT22;218;51.902;9.542;2023-07-22T16:11:23;28.30;1.00
463;DHT22;218;51.902;9.542;2023-07-22T16:13:50;28.30;1.00
463;DHT22;218;51.902;9.542;2023-07-22T16:16:17;28.30;1.00
463;DHT22;218;51.902;9.542;2023-07-22T16:18:43;28.30;1.00
463;DHT22;218;51.902;9.542;2023-07-22T16:21:10;28.30;1.00
463;DHT22;218;51.902;9.542;2023-07-22T16:23:39;28.20;1.00
463;DHT22;218;51.902;9.542;2023-07-22T16:26:06;28.20;1.00
463;DHT22;218;51.902;9.542;2023-07-22T16:28:32;28.20;1.00
463;DHT22;218;51.902;9.542;2023-07-22T16:30:59;28.20;1.00
463;DHT22;218;51.902;9.542;2023-07-22T16:33:26;28.20;1.00
463;DHT22;218;51.902;9.542;2023-07-22T16:35:53;28.20;1.00
463;DHT22;218;51.902;9.542;2023-07-22T16:38:20;28.20;1.00
463;DHT22;218;51.902;9.542;2023-07-22T16:40:49;28.20;1.00
463;DHT22;218;51.902;9.542;2023-07-22T16:43:15;28.20;1.00
463;DHT22;218;51.902;9.542;2023-07-22T16:45:42;28.10;1.00
463;DHT22;218;51.902;9.542;2023-07-22T16:48:09;28.10;1.00
463;DHT22;218;51.902;9.542;2023-07-22T16:50:36;28.10;1.00
463;DHT22;218;51.902;9.542;2023-07-22T16:53:04;28.00;1.00
463;DHT22;218;51.902;9.542;2023-07-22T16:55:31;28.00;1.00
463;DHT22;218;51.902;9.542;2023-07-22T16:57:59;28.00;1.00
463;DHT22;218;51.902;9.542;2023-07-22T17:00:26;27.90;1.00
463;DHT22;218;51.902;9.542;2023-07-22T17:02:54;27.90;1.00
463;DHT22;218;51.902;9.542;2023-07-22T17:05:21;27.90;1.00
463;DHT22;218;51.902;9.542;2023-07-22T17:07:48;27.90;1.00
463;DHT22;218;51.902;9.542;2023-07-22T17:10:15;27.90;1.00
463;DHT22;218;51.902;9.542;2023-07-22T17:12:42;27.90;1.00
463;DHT22;218;51.902;9.542;2023-07-22T17:15:10;27.90;1.00
463;DHT22;218;51.902;9.542;2023-07-22T17:17:39;27.90;1.00
463;DHT22;218;51.902;9.542;2023-07-22T17:20:09;27.90;1.00
463;DHT22;218;51.902;9.542;2023-07-22T17:22:36;27.80;1.00
463;DHT22;218;51.902;9.542;2023-07-22T17:25:03;27.80;1.00
463;DHT22;218;51.902;9.542;2023-07-22T17:27:30;27.80;1.00
463;DHT22;218;51.902;9.542;2023-07-22T17:29:58;27.70;1.00
463;DHT22;218;51.902;9.542;2023-07-22T17:32:26;27.70;1.00
463;DHT22;218;51.902;9.542;2023-07-22T17:34:53;27.60;1.00
463;DHT22;218;51.902;9.542;2023-07-22T17:37:22;27.60;1.00
463;DHT22;218;51.902;9.542;2023-07-22T17:39:49;27.60;1.00
463;DHT22;218;51.902;9.542;2023-07-22T17:42:17;27.50;1.00
463;DHT22;218;51.902;9.542;2023-07-22T17:44:45;27.40;1.00
463;DHT22;218;51.902;9.542;2023-07-22T17:47:12;27.40;1.00
463;DHT22;218;51.902;9.542;2023-07-22T17:49:40;27.30;1.00
463;DHT22;218;51.902;9.542;2023-07-22T17:52:07;27.30;1.00
463;DHT22;218;51.902;9.542;2023-07-22T17:54:34;27.20;1.00
463;DHT22;218;51.902;9.542;2023-07-22T17:57:01;27.20;1.00
463;DHT22;218;51.902;9.542;2023-07-22T17:59:28;27.10;1.00
463;DHT22;218;51.902;9.542;2023-07-22T18:01:55;27.10;1.00
463;DHT22;218;51.902;9.542;2023-07-22T18:04:22;27.00;1.00
463;DHT22;218;51.902;9.542;2023-07-22T18:06:50;27.00;1.00
463;DHT22;218;51.902;9.542;2023-07-22T18:09:17;27.00;1.00
463;DHT22;218;51.902;9.542;2023-07-22T18:11:44;26.90;1.00
463;DHT22;218;51.902;9.542;2023-07-22T18:14:11;26.90;1.00
463;DHT22;218;51.902;9.542;2023-07-22T18:16:38;26.80;1.00
463;DHT22;218;51.902;9.542;2023-07-22T18:19:05;26.80;1.00
463;DHT22;218;51.902;9.542;2023-07-22T18:21:33;26.70;1.00
463;DHT22;218;51.902;9.542;2023-07-22T18:24:01;26.70;1.00
463;DHT22;218;51.902;9.542;2023-07-22T18:26:28;26.70;1.00
463;DHT22;218;51.902;9.542;2023-07-22T18:28:55;26.70;1.00
463;DHT22;218;51.902;9.542;2023-07-22T18:31:22;26.60;1.00
463;DHT22;218;51.902;9.542;2023-07-22T18:33:50;26.60;1.00
463;DHT22;218;51.902;9.542;2023-07-22T18:36:17;26.60;1.00
463;DHT22;218;51.902;9.542;2023-07-22T18:38:46;26.50;1.00
463;DHT22;218;51.902;9.542;2023-07-22T18:41:15;26.40;1.00
463;DHT22;218;51.902;9.542;2023-07-22T18:43:42;26.40;1.00
463;DHT22;218;51.902;9.542;2023-07-22T18:46:13;26.30;1.00
463;DHT22;218;51.902;9.542;2023-07-22T18:48:40;26.20;1.00
463;DHT22;218;51.902;9.542;2023-07-22T18:51:07;26.20;1.00
463;DHT22;218;51.902;9.542;2023-07-22T18:53:34;26.10;1.00
463;DHT22;218;51.902;9.542;2023-07-22T18:56:01;26.00;1.00
463;DHT22;218;51.902;9.542;2023-07-22T18:58:30;25.90;1.00
463;DHT22;218;51.902;9.542;2023-07-22T19:00:57;25.80;1.00
463;DHT22;218;51.902;9.542;2023-07-22T19:03:23;25.80;1.00
463;DHT22;218;51.902;9.542;2023-07-22T19:05:51;25.70;1.00
463;DHT22;218;51.902;9.542;2023-07-22T19:08:21;25.60;1.00
463;DHT22;218;51.902;9.542;2023-07-22T19:10:48;25.50;1.00
463;DHT22;218;51.902;9.542;2023-07-22T19:13:15;25.40;1.00
463;DHT22;218;51.902;9.542;2023-07-22T19:15:47;25.30;1.00
463;DHT22;218;51.902;9.542;2023-07-22T19:18:14;25.20;1.00
463;DHT22;218;51.902;9.542;2023-07-22T19:20:41;25.10;1.00
463;DHT22;218;51.902;9.542;2023-07-22T19:23:08;25.10;1.00
463;DHT22;218;51.902;9.542;2023-07-22T19:25:36;25.00;1.00
463;DHT22;218;51.902;9.542;2023-07-22T19:28:04;24.90;1.00
463;DHT22;218;51.902;9.542;2023-07-22T19:30:35;24.80;1.00
463;DHT22;218;51.902;9.542;2023-07-22T19:33:04;24.70;1.00
463;DHT22;218;51.902;9.542;2023-07-22T19:35:31;24.60;1.00
463;DHT22;218;51.902;9.542;2023-07-22T19:37:58;24.50;1.00
463;DHT22;218;51.902;9.542;2023-07-22T19:40:27;24.40;1.00
463;DHT22;218;51.902;9.542;2023-07-22T19:42:54;24.30;1.00
463;DHT22;218;51.902;9.542;2023-07-22T19:45:22;24.20;1.00
463;DHT22;218;51.902;9.542;2023-07-22T19:47:49;24.10;1.00
463;DHT22;218;51.902;9.542;2023-07-22T19:50:18;24.00;1.00
463;DHT22;218;51.902;9.542;2023-07-22T19:52:45;23.90;1.00
463;DHT22;218;51.902;9.542;2023-07-22T19:55:13;23.90;1.00
463;DHT22;218;51.902;9.542;2023-07-22T19:57:40;23.70;1.00
463;DHT22;218;51.902;9.542;2023-07-22T20:00:07;23.70;1.00
463;DHT22;218;51.902;9.542;2023-07-22T20:02:34;23.60;1.00
463;DHT22;218;51.902;9.542;2023-07-22T20:05:01;23.50;1.00
463;DHT22;218;51.902;9.542;2023-07-22T20:07:30;23.50;1.00
463;DHT22;218;51.902;9.542;2023-07-22T20:09:56;23.40;1.00
463;DHT22;218;51.902;9.542;2023-07-22T20:12:23;23.30;1.00
463;DHT22;218;51.902;9.542;2023-07-22T20:17:18;23.20;1.00
463;DHT22;218;51.902;9.542;2023-07-22T20:19:44;23.20;1.00
463;DHT22;218;51.902;9.542;2023-07-22T20:22:11;23.10;1.00
463;DHT22;218;51.902;9.542;2023-07-22T20:24:41;23.10;1.00
463;DHT22;218;51.902;9.542;2023-07-22T20:27:08;23.00;1.00
463;DHT22;218;51.902;9.542;2023-07-22T20:32:02;23.00;1.00
463;DHT22;218;51.902;9.542;2023-07-22T20:34:29;23.00;1.00
463;DHT22;218;51.902;9.542;2023-07-22T20:36:56;22.90;1.00
463;DHT22;218;51.902;9.542;2023-07-22T20:39:23;22.80;1.00
463;DHT22;218;51.902;9.542;2023-07-22T20:41:51;22.80;1.00
463;DHT22;218;51.902;9.542;2023-07-22T20:44:18;22.80;1.00
463;DHT22;218;51.902;9.542;2023-07-22T20:49:12;22.70;1.00
463;DHT22;218;51.902;9.542;2023-07-22T20:56:33;22.60;1.00
463;DHT22;218;51.902;9.542;2023-07-22T20:59:05;22.60;1.00
463;DHT22;218;51.902;9.542;2023-07-22T21:01:31;22.50;1.00
463;DHT22;218;51.902;9.542;2023-07-22T21:06:26;22.50;1.00
463;DHT22;218;51.902;9.542;2023-07-22T21:08:52;22.50;1.00
463;DHT22;218;51.902;9.542;2023-07-22T21:11:19;22.40;1.00
463;DHT22;218;51.902;9.542;2023-07-22T21:13:46;22.40;1.00
463;DHT22;218;51.902;9.542;2023-07-22T21:16:15;22.40;1.00
463;DHT22;218;51.902;9.542;2023-07-22T21:18:42;22.40;1.00
463;DHT22;218;51.902;9.542;2023-07-22T21:21:09;22.40;1.00
463;DHT22;218;51.902;9.542;2023-07-22T21:23:39;22.40;1.00
463;DHT22;218;51.902;9.542;2023-07-22T21:26:06;22.40;1.00
463;DHT22;218;51.902;9.542;2023-07-22T21:28:33;22.30;1.00
463;DHT22;218;51.902;9.542;2023-07-22T21:31:00;22.30;1.00
463;DHT22;218;51.902;9.542;2023-07-22T21:33:29;22.30;1.00
463;DHT22;218;51.902;9.542;2023-07-22T21:38:23;22.30;1.00
463;DHT22;218;51.902;9.542;2023-07-22T21:43:17;22.20;1.00
463;DHT22;218;51.902;9.542;2023-07-22T21:45:44;22.20;1.00
463;DHT22;218;51.902;9.542;2023-07-22T21:48:12;22.20;1.00
463;DHT22;218;51.902;9.542;2023-07-22T21:53:08;22.10;1.00
463;DHT22;218;51.902;9.542;2023-07-22T21:55:36;22.10;1.00
463;DHT22;218;51.902;9.542;2023-07-22T21:58:03;22.10;1.00
463;DHT22;218;51.902;9.542;2023-07-22T22:00:30;22.10;1.00
463;DHT22;218;51.902;9.542;2023-07-22T22:03:00;22.10;1.00
463;DHT22;218;51.902;9.542;2023-07-22T22:05:28;22.00;1.00
463;DHT22;218;51.902;9.542;2023-07-22T22:07:57;22.00;1.00
463;DHT22;218;51.902;9.542;2023-07-22T22:10:24;22.00;1.00
463;DHT22;218;51.902;9.542;2023-07-22T22:12:51;22.10;1.00
463;DHT22;218;51.902;9.542;2023-07-22T22:15:17;22.00;1.00
463;DHT22;218;51.902;9.542;2023-07-22T22:17:44;22.00;1.00
463;DHT22;218;51.902;9.542;2023-07-22T22:20:12;21.90;1.00
463;DHT22;218;51.902;9.542;2023-07-22T22:22:39;21.90;1.00
463;DHT22;218;51.902;9.542;2023-07-22T22:25:08;21.90;1.00
463;DHT22;218;51.902;9.542;2023-07-22T22:27:35;21.90;1.00
463;DHT22;218;51.902;9.542;2023-07-22T22:30:02;21.80;1.00
463;DHT22;218;51.902;9.542;2023-07-22T22:32:29;21.90;1.00
463;DHT22;218;51.902;9.542;2023-07-22T22:34:56;21.90;1.00
463;DHT22;218;51.902;9.542;2023-07-22T22:37:23;21.90;1.00
463;DHT22;218;51.902;9.542;2023-07-22T22:39:50;21.90;1.00
463;DHT22;218;51.902;9.542;2023-07-22T22:42:18;21.90;1.00
463;DHT22;218;51.902;9.542;2023-07-22T22:44:45;21.90;1.00
463;DHT22;218;51.902;9.542;2023-07-22T22:47:12;21.80;1.00
463;DHT22;218;51.902;9.542;2023-07-22T22:49:39;21.80;1.00
463;DHT22;218;51.902;9.542;2023-07-22T22:52:06;21.80;1.00
463;DHT22;218;51.902;9.542;2023-07-22T22:54:33;21.70;1.00
463;DHT22;218;51.902;9.542;2023-07-22T22:57:00;21.70;1.00
463;DHT22;218;51.902;9.542;2023-07-22T22:59:28;21.70;1.00
463;DHT22;218;51.902;9.542;2023-07-22T23:01:55;21.80;1.00
463;DHT22;218;51.902;9.542;2023-07-22T23:04:22;21.70;1.00
463;DHT22;218;51.902;9.542;2023-07-22T23:06:49;21.70;1.00
463;DHT22;218;51.902;9.542;2023-07-22T23:09:16;21.70;1.00
463;DHT22;218;51.902;9.542;2023-07-22T23:14:10;21.70;1.00
463;DHT22;218;51.902;9.542;2023-07-22T23:19:05;21.60;1.00
463;DHT22;218;51.902;9.542;2023-07-22T23:21:32;21.60;1.00
463;DHT22;218;51.902;9.542;2023-07-22T23:23:59;21.60;1.00
463;DHT22;218;51.902;9.542;2023-07-22T23:26:26;21.70;1.00
463;DHT22;218;51.902;9.542;2023-07-22T23:28:55;21.60;1.00
463;DHT22;218;51.902;9.542;2023-07-22T23:33:50;21.60;1.00
463;DHT22;218;51.902;9.542;2023-07-22T23:36:17;21.50;1.00
463;DHT22;218;51.902;9.542;2023-07-22T23:43:38;21.50;1.00
463;DHT22;218;51.902;9.542;2023-07-22T23:46:05;21.40;1.00
463;DHT22;218;51.902;9.542;2023-07-22T23:48:32;21.40;1.00
